createdAt,value
2023-09-18T00:00:17.924Z,21.50
2023-09-18T00:02:47.098Z,21.50
2023-09-18T00:05:17.086Z,21.50
2023-09-18T00:07:46.020Z,21.50
2023-09-18T00:10:14.643Z,21.50
2023-09-18T00:12:44.460Z,21.40
2023-09-18T00:15:12.661Z,21.40
2023-09-18T00:17:44.046Z,21.40
2023-09-18T00:20:13.618Z,21.40
2023-09-18T00:22:41.989Z,21.30
2023-09-18T00:25:12.622Z,21.40
2023-09-18T00:27:40.823Z,21.30
2023-09-18T00:30:12.637Z,21.30
2023-09-18T00:32:42.407Z,21.20
2023-09-18T00:35:10.906Z,21.20
2023-09-18T00:37:42.031Z,21.20
2023-09-18T00:40:11.592Z,21.20
2023-09-18T00:42:40.318Z,21.10
2023-09-18T00:45:10.583Z,21.10
2023-09-18T00:47:39.230Z,21.10
2023-09-18T00:50:14.055Z,21.10
2023-09-18T00:52:43.818Z,21.10
2023-09-18T00:55:16.407Z,21.00
2023-09-18T00:57:46.029Z,21.00
2023-09-18T01:00:17.035Z,20.90
2023-09-18T01:02:46.555Z,20.90
2023-09-18T01:05:17.815Z,20.80
2023-09-18T01:07:48.057Z,20.80
2023-09-18T01:10:18.017Z,20.80
2023-09-18T01:12:52.598Z,20.80
2023-09-18T01:15:25.166Z,20.70
2023-09-18T01:17:55.135Z,20.70
2023-09-18T01:20:24.801Z,20.60
2023-09-18T01:22:55.635Z,20.60
2023-09-18T01:25:23.878Z,20.50
2023-09-18T01:27:54.029Z,20.50
2023-09-18T01:30:22.216Z,20.40
2023-09-18T01:32:52.052Z,20.40
2023-09-18T01:35:21.071Z,20.40
2023-09-18T01:37:49.338Z,20.30
2023-09-18T01:40:20.106Z,20.30
2023-09-18T01:42:48.948Z,20.30
2023-09-18T01:45:17.077Z,20.30
2023-09-18T01:47:47.190Z,20.30
2023-09-18T01:50:18.946Z,20.20
2023-09-18T01:52:47.067Z,20.20
2023-09-18T01:55:15.214Z,20.20
2023-09-18T01:57:49.070Z,20.20
2023-09-18T02:00:19.500Z,20.20
2023-09-18T02:02:51.188Z,20.20
2023-09-18T02:05:40.595Z,20.10
2023-09-18T02:08:09.053Z,20.10
2023-09-18T02:10:38.093Z,20.10
2023-09-18T02:13:11.666Z,20.00
2023-09-18T02:15:41.069Z,20.00
2023-09-18T02:18:11.165Z,20.00
2023-09-18T02:20:43.122Z,20.00
2023-09-18T02:23:12.114Z,20.00
2023-09-18T02:25:43.120Z,19.90
2023-09-18T02:28:13.115Z,19.90
2023-09-18T02:30:42.204Z,19.90
2023-09-18T02:33:11.105Z,19.90
2023-09-18T02:35:40.135Z,19.80
2023-09-18T02:38:11.277Z,19.80
2023-09-18T02:40:40.058Z,19.80
2023-09-18T02:43:08.281Z,19.70
2023-09-18T02:45:37.807Z,19.70
2023-09-18T02:48:07.229Z,19.70
2023-09-18T02:50:40.109Z,19.70
2023-09-18T02:53:10.165Z,19.70
2023-09-18T02:55:42.103Z,19.70
2023-09-18T02:58:12.108Z,19.70
2023-09-18T03:00:45.355Z,19.70
2023-09-18T03:03:15.244Z,19.70
2023-09-18T03:05:45.394Z,19.70
2023-09-18T03:08:17.603Z,19.70
2023-09-18T03:10:46.790Z,19.70
2023-09-18T03:13:17.844Z,19.70
2023-09-18T03:15:50.202Z,19.70
2023-09-18T03:18:20.167Z,19.70
2023-09-18T03:20:49.365Z,19.70
2023-09-18T03:23:17.762Z,19.70
2023-09-18T03:25:49.456Z,19.70
2023-09-18T03:28:21.545Z,19.70
2023-09-18T03:31:16.157Z,19.70
2023-09-18T03:33:44.704Z,19.70
2023-09-18T03:36:16.505Z,19.70
2023-09-18T03:38:44.687Z,19.70
2023-09-18T03:41:13.039Z,19.70
2023-09-18T03:43:47.074Z,19.70
2023-09-18T03:46:19.460Z,19.70
2023-09-18T03:48:51.323Z,19.70
2023-09-18T03:51:21.644Z,19.70
2023-09-18T03:53:50.075Z,19.70
2023-09-18T03:56:19.149Z,19.70
2023-09-18T03:58:50.682Z,19.70
2023-09-18T04:01:22.164Z,19.70
2023-09-18T04:03:53.855Z,19.70
2023-09-18T04:06:26.163Z,19.70
2023-09-18T04:08:54.521Z,19.70
2023-09-18T04:11:26.984Z,19.70
2023-09-18T04:13:55.147Z,19.70
2023-09-18T04:16:29.154Z,19.70
2023-09-18T04:18:57.407Z,19.70
2023-09-18T04:21:26.583Z,19.70
2023-09-18T04:23:58.509Z,19.70
2023-09-18T04:26:30.709Z,19.70
2023-09-18T04:29:02.202Z,19.70
2023-09-18T04:31:33.512Z,19.70
2023-09-18T04:34:06.184Z,19.70
2023-09-18T04:36:38.472Z,19.80
2023-09-18T04:39:07.787Z,19.80
2023-09-18T04:41:36.124Z,19.70
2023-09-18T04:44:08.493Z,19.70
2023-09-18T04:46:38.926Z,19.80
2023-09-18T04:49:08.123Z,19.80
2023-09-18T04:51:40.067Z,19.80
2023-09-18T04:54:08.561Z,19.80
2023-09-18T04:56:37.453Z,19.80
2023-09-18T04:59:06.140Z,19.80
2023-09-18T05:01:35.094Z,19.80
2023-09-18T05:04:05.043Z,19.80
2023-09-18T05:06:35.014Z,19.90
2023-09-18T05:09:03.951Z,19.90
2023-09-18T05:11:32.580Z,19.90
2023-09-18T05:14:04.386Z,19.90
2023-09-18T05:16:36.572Z,20.00
2023-09-18T05:19:06.336Z,20.00
2023-09-18T05:21:37.235Z,20.00
2023-09-18T05:24:06.708Z,19.90
2023-09-18T05:26:36.559Z,20.00
2023-09-18T05:29:05.198Z,20.00
2023-09-18T05:31:33.353Z,20.00
2023-09-18T05:34:07.017Z,20.00
2023-09-18T05:36:36.213Z,20.00
2023-09-18T05:39:11.075Z,20.10
2023-09-18T05:41:39.587Z,20.10
2023-09-18T05:44:08.572Z,20.10
2023-09-18T05:46:37.074Z,20.10
2023-09-18T05:49:06.911Z,20.10
2023-09-18T05:51:36.506Z,20.10
2023-09-18T05:54:04.847Z,20.10
2023-09-18T05:56:36.473Z,20.10
2023-09-18T05:59:07.317Z,20.10
2023-09-18T06:01:36.222Z,20.20
2023-09-18T06:04:04.888Z,20.20
2023-09-18T06:06:35.533Z,20.20
2023-09-18T06:09:04.484Z,20.20
2023-09-18T06:11:32.809Z,20.30
2023-09-18T06:14:01.111Z,20.30
2023-09-18T06:16:31.186Z,20.30
2023-09-18T06:19:01.233Z,20.30
2023-09-18T06:21:32.134Z,20.30
2023-09-18T06:24:04.934Z,20.30
2023-09-18T06:26:33.067Z,20.30
2023-09-18T06:29:01.529Z,20.40
2023-09-18T06:31:30.178Z,20.40
2023-09-18T06:33:58.265Z,20.40
2023-09-18T06:36:26.395Z,20.50
2023-09-18T06:38:55.021Z,20.50
2023-09-18T06:41:25.014Z,20.50
2023-09-18T06:43:54.171Z,20.60
2023-09-18T06:46:24.435Z,20.70
2023-09-18T06:48:54.289Z,20.70
2023-09-18T06:51:36.970Z,20.70
2023-09-18T06:54:10.920Z,20.80
2023-09-18T06:56:48.568Z,20.90
2023-09-18T06:59:16.959Z,20.90
2023-09-18T07:01:45.111Z,21.00
2023-09-18T07:04:13.358Z,21.10
2023-09-18T07:06:41.973Z,21.10
2023-09-18T07:09:16.426Z,21.10
2023-09-18T07:11:46.479Z,21.20
2023-09-18T07:14:14.658Z,21.30
2023-09-18T07:16:45.530Z,21.40
2023-09-18T07:19:17.907Z,21.40
2023-09-18T07:21:46.582Z,21.50
2023-09-18T07:24:18.065Z,21.60
2023-09-18T07:26:49.678Z,21.60
2023-09-18T07:29:19.602Z,21.70
2023-09-18T07:31:49.011Z,21.80
2023-09-18T07:34:18.859Z,21.80
2023-09-18T07:36:47.176Z,21.90
2023-09-18T07:39:15.777Z,22.00
2023-09-18T07:41:43.974Z,22.00
2023-09-18T07:44:13.508Z,22.10
2023-09-18T07:46:42.637Z,22.20
2023-09-18T07:49:10.767Z,22.20
2023-09-18T07:51:38.843Z,22.30
2023-09-18T07:54:09.605Z,22.40
2023-09-18T07:56:37.807Z,22.50
2023-09-18T07:59:08.465Z,22.50
2023-09-18T08:04:07.117Z,22.70
2023-09-18T08:06:39.320Z,22.80
2023-09-18T08:09:07.455Z,22.90
2023-09-18T08:11:35.590Z,22.90
2023-09-18T08:14:04.226Z,23.00
2023-09-18T08:16:32.479Z,23.10
2023-09-18T08:19:03.526Z,23.10
2023-09-18T08:21:32.012Z,23.20
2023-09-18T08:24:00.169Z,23.20
2023-09-18T08:26:32.235Z,23.30
2023-09-18T08:29:01.289Z,23.30
2023-09-18T08:31:30.748Z,23.40
2023-09-18T08:33:59.145Z,23.50
2023-09-18T08:36:30.299Z,23.50
2023-09-18T08:38:59.989Z,23.60
2023-09-18T08:41:34.615Z,23.60
2023-09-18T08:44:05.216Z,23.70
2023-09-18T08:46:35.355Z,23.80
2023-09-18T08:49:04.558Z,23.80
2023-09-18T08:51:35.617Z,23.90
2023-09-18T08:54:06.182Z,23.90
2023-09-18T08:56:37.256Z,24.00
2023-09-18T08:59:05.672Z,24.00
2023-09-18T09:01:37.794Z,24.10
2023-09-18T09:04:06.441Z,24.10
2023-09-18T09:06:38.305Z,24.20
2023-09-18T09:09:07.313Z,24.20
2023-09-18T09:11:38.349Z,24.30
2023-09-18T09:14:18.736Z,24.30
2023-09-18T09:16:50.009Z,24.40
2023-09-18T09:19:29.418Z,24.40
2023-09-18T09:22:02.012Z,24.50
2023-09-18T09:24:41.070Z,24.60
2023-09-18T09:27:10.433Z,24.60
2023-09-18T09:29:39.778Z,24.60
2023-09-18T09:32:18.517Z,24.70
2023-09-18T09:34:48.396Z,24.70
2023-09-18T09:37:21.793Z,24.80
2023-09-18T09:39:54.460Z,24.90
2023-09-18T09:42:26.103Z,24.90
2023-09-18T09:45:05.985Z,24.90
2023-09-18T09:47:36.921Z,25.00
2023-09-18T09:50:12.362Z,25.00
2023-09-18T09:52:48.461Z,25.10
2023-09-18T09:55:23.396Z,25.10
2023-09-18T09:57:53.522Z,25.20
2023-09-18T10:00:28.285Z,25.20
2023-09-18T10:03:00.116Z,25.30
2023-09-18T10:05:34.214Z,25.30
2023-09-18T10:08:06.669Z,25.40
2023-09-18T10:10:38.293Z,25.50
2023-09-18T10:13:15.815Z,25.60
2023-09-18T10:18:33.495Z,25.70
2023-09-18T10:21:11.936Z,25.80
2023-09-18T10:23:55.980Z,25.80
2023-09-18T10:26:29.460Z,25.90
2023-09-18T10:29:00.878Z,26.00
2023-09-18T10:31:34.464Z,26.00
2023-09-18T10:34:05.933Z,26.10
2023-09-18T10:36:37.403Z,26.10
2023-09-18T10:39:13.967Z,26.30
2023-09-18T10:41:43.045Z,26.30
2023-09-18T10:44:14.270Z,26.30
2023-09-18T10:46:42.586Z,26.40
2023-09-18T10:49:12.400Z,26.40
2023-09-18T10:51:43.367Z,26.50
2023-09-18T10:54:18.446Z,26.50
2023-09-18T10:56:47.468Z,26.60
2023-09-18T10:59:17.442Z,26.60
2023-09-18T11:01:49.413Z,26.70
2023-09-18T11:04:22.157Z,26.70
2023-09-18T11:07:10.422Z,26.70
2023-09-18T11:09:47.530Z,26.80
2023-09-18T11:12:18.539Z,26.80
2023-09-18T11:14:50.476Z,26.90
2023-09-18T11:17:36.104Z,27.00
2023-09-18T11:20:11.077Z,27.00
2023-09-18T11:22:40.173Z,27.10
2023-09-18T11:25:35.679Z,27.10
2023-09-18T11:28:04.613Z,27.20
2023-09-18T11:30:34.270Z,27.20
2023-09-18T11:33:03.897Z,27.30
2023-09-18T11:35:32.376Z,27.40
2023-09-18T11:38:09.788Z,27.50
2023-09-18T11:40:42.419Z,27.60
2023-09-18T11:43:27.929Z,27.80
2023-09-18T11:45:57.370Z,27.90
2023-09-18T11:48:29.149Z,28.00
2023-09-18T11:51:04.583Z,28.10
2023-09-18T11:53:38.204Z,28.30
2023-09-18T11:56:18.968Z,28.40
2023-09-18T11:58:48.197Z,28.50
2023-09-18T12:01:17.371Z,28.70
2023-09-18T12:03:48.045Z,28.70
2023-09-18T12:06:18.571Z,28.80
2023-09-18T12:08:53.284Z,28.90
2023-09-18T12:11:24.186Z,29.00
2023-09-18T12:13:53.937Z,29.10
2023-09-18T12:16:22.531Z,29.20
2023-09-18T12:18:53.438Z,29.20
2023-09-18T12:21:22.466Z,29.30
2023-09-18T12:23:51.820Z,29.40
2023-09-18T12:26:21.420Z,29.40
2023-09-18T12:28:54.502Z,29.40
2023-09-18T12:31:23.581Z,29.30
2023-09-18T12:33:52.324Z,29.20
2023-09-18T12:36:22.710Z,29.20
2023-09-18T12:39:01.839Z,29.20
2023-09-18T12:41:33.528Z,29.20
2023-09-18T12:44:05.530Z,29.30
2023-09-18T12:46:34.802Z,29.40
2023-09-18T12:49:17.442Z,29.40
2023-09-18T12:51:47.755Z,29.50
2023-09-18T12:54:19.113Z,29.50
2023-09-18T12:56:47.360Z,29.60
2023-09-18T12:59:18.897Z,29.50
2023-09-18T13:01:50.184Z,29.60
2023-09-18T13:04:21.939Z,29.60
2023-09-18T13:07:04.388Z,29.70
2023-09-18T13:09:33.521Z,29.70
2023-09-18T13:12:01.746Z,29.70
2023-09-18T13:14:31.801Z,29.80
2023-09-18T13:17:05.714Z,29.80
2023-09-18T13:19:34.022Z,29.80
2023-09-18T13:22:02.208Z,29.90
2023-09-18T13:24:31.556Z,29.90
2023-09-18T13:27:02.020Z,30.00
2023-09-18T13:29:33.615Z,30.10
2023-09-18T13:32:02.078Z,30.10
2023-09-18T13:34:31.625Z,30.20
2023-09-18T13:37:01.369Z,30.30
2023-09-18T13:39:33.959Z,30.30
2023-09-18T13:42:02.177Z,30.20
2023-09-18T13:44:30.648Z,30.10
2023-09-18T13:47:01.586Z,30.10
2023-09-18T13:49:29.797Z,29.90
2023-09-18T13:52:01.883Z,29.80
2023-09-18T13:54:30.913Z,29.80
2023-09-18T13:56:59.524Z,29.80
2023-09-18T13:59:29.566Z,29.90
2023-09-18T14:01:57.690Z,30.00
2023-09-18T14:04:31.520Z,30.00
2023-09-18T14:07:00.581Z,30.10
2023-09-18T14:09:30.594Z,30.10
2023-09-18T14:11:59.523Z,30.20
2023-09-18T14:14:28.546Z,30.20
2023-09-18T14:16:59.549Z,30.20
2023-09-18T14:19:27.965Z,30.10
2023-09-18T14:21:57.580Z,30.10
2023-09-18T14:24:27.666Z,30.00
2023-09-18T14:26:56.756Z,29.90
2023-09-18T14:29:25.504Z,29.70
2023-09-18T14:31:54.643Z,29.70
2023-09-18T14:34:22.891Z,29.60
2023-09-18T14:36:51.110Z,29.50
2023-09-18T14:39:21.605Z,29.40
2023-09-18T14:41:50.796Z,29.30
2023-09-18T14:44:19.063Z,29.30
2023-09-18T14:46:47.469Z,29.20
2023-09-18T14:49:15.673Z,29.10
2023-09-18T14:51:45.650Z,29.00
2023-09-18T14:54:15.447Z,29.00
2023-09-18T14:56:49.597Z,28.80
2023-09-18T14:59:24.500Z,28.80
2023-09-18T15:02:00.668Z,28.70
2023-09-18T15:04:28.917Z,28.70
2023-09-18T15:06:57.133Z,28.70
2023-09-18T15:09:25.326Z,28.60
2023-09-18T15:11:59.682Z,28.60
2023-09-18T15:14:28.023Z,28.50
2023-09-18T15:16:56.945Z,28.40
2023-09-18T15:19:25.071Z,28.40
2023-09-18T15:22:12.667Z,28.30
2023-09-18T15:24:40.764Z,28.20
2023-09-18T15:27:10.662Z,28.20
2023-09-18T15:29:40.712Z,28.10
2023-09-18T15:32:09.751Z,28.10
2023-09-18T15:34:41.292Z,28.00
2023-09-18T15:37:12.422Z,28.00
2023-09-18T15:39:41.123Z,28.00
2023-09-18T15:42:11.669Z,28.00
2023-09-18T15:44:41.747Z,27.80
2023-09-18T15:47:10.568Z,27.70
2023-09-18T15:49:39.618Z,27.70
2023-09-18T15:52:08.139Z,27.60
2023-09-18T15:54:36.656Z,27.60
2023-09-18T15:57:04.974Z,27.50
2023-09-18T15:59:34.542Z,27.40
2023-09-18T16:02:03.694Z,27.40
2023-09-18T16:04:32.520Z,27.30
2023-09-18T16:07:00.899Z,27.30
2023-09-18T16:09:29.134Z,27.30
2023-09-18T16:11:58.740Z,27.20
2023-09-18T16:14:26.913Z,27.10
2023-09-18T16:16:58.607Z,27.10
2023-09-18T16:19:26.864Z,27.00
2023-09-18T16:21:55.685Z,27.00
2023-09-18T16:24:24.430Z,27.00
2023-09-18T16:26:53.192Z,26.90
2023-09-18T16:29:25.368Z,26.90
2023-09-18T16:31:56.998Z,26.80
2023-09-18T16:34:25.706Z,26.80
2023-09-18T16:36:54.504Z,26.70
2023-09-18T16:39:27.916Z,26.60
2023-09-18T16:41:56.339Z,26.60
2023-09-18T16:44:27.162Z,26.50
2023-09-18T16:46:56.935Z,26.40
2023-09-18T16:49:26.289Z,26.40
2023-09-18T16:51:54.394Z,26.40
2023-09-18T16:54:24.804Z,26.30
2023-09-18T16:56:53.206Z,26.30
2023-09-18T16:59:23.837Z,26.20
2023-09-18T17:01:52.212Z,26.20
2023-09-18T17:04:21.859Z,26.10
2023-09-18T17:06:52.279Z,26.00
2023-09-18T17:09:21.690Z,26.00
2023-09-18T17:11:50.187Z,26.00
2023-09-18T17:14:20.163Z,25.90
2023-09-18T17:16:48.683Z,25.90
2023-09-18T17:19:18.289Z,25.80
2023-09-18T17:21:47.930Z,25.80
2023-09-18T17:24:16.945Z,25.80
2023-09-18T17:26:45.165Z,25.70
2023-09-18T17:29:14.654Z,25.70
2023-09-18T17:31:43.095Z,25.60
2023-09-18T17:34:12.823Z,25.60
2023-09-18T17:36:41.945Z,25.60
2023-09-18T17:39:11.574Z,25.50
2023-09-18T17:41:39.964Z,25.50
2023-09-18T17:44:08.312Z,25.50
2023-09-18T17:46:36.523Z,25.50
2023-09-18T17:49:09.434Z,25.40
2023-09-18T17:51:37.537Z,25.40
2023-09-18T17:54:06.461Z,25.30
2023-09-18T17:56:37.311Z,25.20
2023-09-18T17:59:08.190Z,25.20
2023-09-18T18:01:37.285Z,25.20
2023-09-18T18:04:06.628Z,25.10
2023-09-18T18:06:36.060Z,25.10
2023-09-18T18:09:06.037Z,25.00
2023-09-18T18:11:41.061Z,24.90
2023-09-18T18:14:09.280Z,24.90
2023-09-18T18:16:37.689Z,24.90
2023-09-18T18:19:06.652Z,24.80
2023-09-18T18:21:35.109Z,24.80
2023-09-18T18:24:08.907Z,24.80
2023-09-18T18:26:38.127Z,24.80
2023-09-18T18:29:07.921Z,24.80
2023-09-18T18:31:36.754Z,24.70
2023-09-18T18:34:05.208Z,24.70
2023-09-18T18:36:35.465Z,24.70
2023-09-18T18:39:06.315Z,24.60
2023-09-18T18:41:35.555Z,24.60
2023-09-18T18:44:04.092Z,24.60
2023-09-18T18:46:33.779Z,24.60
2023-09-18T18:49:02.352Z,24.50
2023-09-18T18:51:30.639Z,24.50
2023-09-18T18:53:59.248Z,24.50
2023-09-18T18:56:27.978Z,24.50
2023-09-18T18:58:57.262Z,24.40
2023-09-18T19:01:29.302Z,24.40
2023-09-18T19:03:59.254Z,24.40
2023-09-18T19:06:27.739Z,24.40
2023-09-18T19:08:58.252Z,24.40
2023-09-18T19:11:27.573Z,24.30
2023-09-18T19:13:57.287Z,24.20
2023-09-18T19:16:25.579Z,24.20
2023-09-18T19:18:53.955Z,24.10
2023-09-18T19:21:23.482Z,24.10
2023-09-18T19:23:52.126Z,24.10
2023-09-18T19:26:22.643Z,24.00
2023-09-18T19:28:53.182Z,24.00
2023-09-18T19:31:22.012Z,24.00
2023-09-18T19:33:51.969Z,24.00
2023-09-18T19:36:20.285Z,24.00
2023-09-18T19:38:49.895Z,24.00
2023-09-18T19:41:20.435Z,23.90
2023-09-18T19:43:48.585Z,23.90
2023-09-18T19:46:18.856Z,23.90
2023-09-18T19:48:47.242Z,23.80
2023-09-18T19:51:15.474Z,23.80
2023-09-18T19:53:51.312Z,23.80
2023-09-18T19:56:20.520Z,23.80
2023-09-18T19:58:50.829Z,23.80
2023-09-18T20:01:19.861Z,23.80
2023-09-18T20:03:48.286Z,23.70
2023-09-18T20:06:17.749Z,23.70
2023-09-18T20:08:49.878Z,23.70
2023-09-18T20:11:20.472Z,23.70
2023-09-18T20:13:49.205Z,23.70
2023-09-18T20:16:17.805Z,23.60
2023-09-18T20:18:46.137Z,23.50
2023-09-18T20:21:15.821Z,23.50
2023-09-18T20:23:44.125Z,23.40
2023-09-18T20:26:12.240Z,23.40
2023-09-18T20:28:45.469Z,23.40
2023-09-18T20:31:13.671Z,23.40
2023-09-18T20:33:46.021Z,23.30
2023-09-18T20:36:14.263Z,23.30
2023-09-18T20:38:42.798Z,23.20
2023-09-18T20:41:10.909Z,23.20
2023-09-18T20:43:46.841Z,23.20
2023-09-18T20:46:15.093Z,23.20
2023-09-18T20:48:43.441Z,23.20
2023-09-18T20:51:12.834Z,23.20
2023-09-18T20:53:41.214Z,23.20
2023-09-18T20:56:09.676Z,23.20
2023-09-18T20:58:41.882Z,23.20
2023-09-18T21:01:11.844Z,23.10
2023-09-18T21:03:40.703Z,23.10
2023-09-18T21:06:09.149Z,23.10
2023-09-18T21:08:37.961Z,23.10
2023-09-18T21:11:09.381Z,23.00
2023-09-18T21:13:37.829Z,23.00
2023-09-18T21:16:06.551Z,23.00
2023-09-18T21:18:37.547Z,23.00
2023-09-18T21:21:15.962Z,23.00
2023-09-18T21:23:46.425Z,23.00
2023-09-18T21:26:15.158Z,22.90
2023-09-18T21:28:46.973Z,22.90
2023-09-18T21:31:18.853Z,22.90
2023-09-18T21:33:50.483Z,22.90
2023-09-18T21:36:21.848Z,22.90
2023-09-18T21:38:51.084Z,22.90
2023-09-18T21:41:20.210Z,22.80
2023-09-18T21:43:49.843Z,22.80
2023-09-18T21:46:18.342Z,22.80
2023-09-18T21:48:52.891Z,22.70
2023-09-18T21:51:21.113Z,22.70
2023-09-18T21:53:49.900Z,22.70
2023-09-18T21:56:18.023Z,22.60
2023-09-18T21:58:51.233Z,22.60
2023-09-18T22:01:21.649Z,22.60
2023-09-18T22:03:57.337Z,22.50
2023-09-18T22:06:27.066Z,22.50
2023-09-18T22:08:56.308Z,22.50
2023-09-18T22:11:25.928Z,22.40
2023-09-18T22:13:54.206Z,22.40
2023-09-18T22:16:22.745Z,22.40
2023-09-18T22:18:54.033Z,22.40
2023-09-18T22:21:22.980Z,22.40
2023-09-18T22:23:53.991Z,22.30
2023-09-18T22:26:22.851Z,22.30
2023-09-18T22:28:53.230Z,22.20
2023-09-18T22:31:21.699Z,22.20
2023-09-18T22:33:52.920Z,22.20
2023-09-18T22:36:28.161Z,22.20
2023-09-18T22:39:10.611Z,22.20
2023-09-18T22:41:40.125Z,22.20
2023-09-18T22:44:46.888Z,22.20
2023-09-18T22:47:53.508Z,22.20
2023-09-18T22:51:04.885Z,22.20
2023-09-18T22:53:32.928Z,22.20
2023-09-18T22:56:03.719Z,22.10
2023-09-18T22:58:37.926Z,22.10
2023-09-18T23:01:10.618Z,22.10
2023-09-18T23:03:40.168Z,22.10
2023-09-18T23:06:09.529Z,22.00
2023-09-18T23:08:42.871Z,22.00
2023-09-18T23:11:14.887Z,22.00
2023-09-18T23:13:47.686Z,21.90
2023-09-18T23:16:16.044Z,21.90
2023-09-18T23:18:45.064Z,21.90
2023-09-18T23:21:13.965Z,21.90
2023-09-18T23:23:43.910Z,21.80
2023-09-18T23:26:13.370Z,21.80
2023-09-18T23:28:46.903Z,21.80
2023-09-18T23:31:17.109Z,21.80
2023-09-18T23:33:49.894Z,21.70
2023-09-18T23:36:18.936Z,21.70
2023-09-18T23:38:49.968Z,21.70
2023-09-18T23:41:27.012Z,21.60
2023-09-18T23:44:07.960Z,21.60
2023-09-18T23:46:40.121Z,21.60
2023-09-18T23:49:10.192Z,21.60
2023-09-18T23:51:39.994Z,21.60
2023-09-18T23:54:08.843Z,21.50
2023-09-18T23:56:38.980Z,21.60
2023-09-18T23:59:08.999Z,21.60
